sensor_id;sensor_type;location;lat;lon;timestamp;temperature;humidity
37050;DHT22;22958;51.232;6.826;2022-07-25T00:01:54;22.50;99.90
37050;DHT22;22958;51.232;6.826;2022-07-25T00:04:20;22.50;99.90
37050;DHT22;22958;51.232;6.826;2022-07-25T00:06:45;22.60;99.90
37050;DHT22;22958;51.232;6.826;2022-07-25T00:09:11;22.50;99.90
37050;DHT22;22958;51.232;6.826;2022-07-25T00:11:36;22.40;99.90
37050;DHT22;22958;51.232;6.826;2022-07-25T00:14:02;22.40;99.90
37050;DHT22;22958;51.232;6.826;2022-07-25T00:16:28;22.30;99.90
37050;DHT22;22958;51.232;6.826;2022-07-25T00:18:53;22.30;99.90
37050;DHT22;22958;51.232;6.826;2022-07-25T00:21:18;22.30;99.90
37050;DHT22;22958;51.232;6.826;2022-07-25T00:23:44;22.20;99.90
37050;DHT22;22958;51.232;6.826;2022-07-25T00:26:09;22.20;99.90
37050;DHT22;22958;51.232;6.826;2022-07-25T00:28:35;22.20;99.90
37050;DHT22;22958;51.232;6.826;2022-07-25T00:31:00;22.20;99.90
37050;DHT22;22958;51.232;6.826;2022-07-25T00:33:26;22.20;99.90
37050;DHT22;22958;51.232;6.826;2022-07-25T00:35:51;22.20;99.90
37050;DHT22;22958;51.232;6.826;2022-07-25T00:38:16;22.20;99.90
37050;DHT22;22958;51.232;6.826;2022-07-25T00:40:42;22.20;99.90
37050;DHT22;22958;51.232;6.826;2022-07-25T00:43:07;22.20;99.90
37050;DHT22;22958;51.232;6.826;2022-07-25T00:45:33;22.20;99.90
37050;DHT22;22958;51.232;6.826;2022-07-25T00:47:58;22.20;99.90
37050;DHT22;22958;51.232;6.826;2022-07-25T00:50:24;22.20;99.90
37050;DHT22;22958;51.232;6.826;2022-07-25T00:52:50;22.20;99.90
37050;DHT22;22958;51.232;6.826;2022-07-25T00:55:16;22.20;99.90
37050;DHT22;22958;51.232;6.826;2022-07-25T00:57:41;22.20;99.90
37050;DHT22;22958;51.232;6.826;2022-07-25T01:00:08;22.20;99.90
37050;DHT22;22958;51.232;6.826;2022-07-25T01:02:34;22.10;99.90
37050;DHT22;22958;51.232;6.826;2022-07-25T01:04:59;22.10;99.90
37050;DHT22;22958;51.232;6.826;2022-07-25T01:07:25;22.00;99.90
37050;DHT22;22958;51.232;6.826;2022-07-25T01:09:51;22.00;99.90
37050;DHT22;22958;51.232;6.826;2022-07-25T01:12:16;21.90;99.90
37050;DHT22;22958;51.232;6.826;2022-07-25T01:14:42;21.80;99.90
37050;DHT22;22958;51.232;6.826;2022-07-25T01:17:07;21.80;99.90
37050;DHT22;22958;51.232;6.826;2022-07-25T01:19:32;21.70;99.90
37050;DHT22;22958;51.232;6.826;2022-07-25T01:21:58;21.60;99.90
37050;DHT22;22958;51.232;6.826;2022-07-25T01:24:24;21.50;99.90
37050;DHT22;22958;51.232;6.826;2022-07-25T01:26:49;21.40;99.90
37050;DHT22;22958;51.232;6.826;2022-07-25T01:29:14;21.30;99.90
37050;DHT22;22958;51.232;6.826;2022-07-25T01:31:40;21.30;99.90
37050;DHT22;22958;51.232;6.826;2022-07-25T01:34:05;21.30;99.90
37050;DHT22;22958;51.232;6.826;2022-07-25T01:36:31;21.30;99.90
37050;DHT22;22958;51.232;6.826;2022-07-25T01:38:56;21.30;99.90
37050;DHT22;22958;51.232;6.826;2022-07-25T01:41:22;21.20;99.90
37050;DHT22;22958;51.232;6.826;2022-07-25T01:43:47;21.20;99.90
37050;DHT22;22958;51.232;6.826;2022-07-25T01:46:13;21.20;99.90
37050;DHT22;22958;51.232;6.826;2022-07-25T01:48:39;21.10;99.90
37050;DHT22;22958;51.232;6.826;2022-07-25T01:51:05;21.10;99.90
37050;DHT22;22958;51.232;6.826;2022-07-25T01:53:31;21.10;99.90
37050;DHT22;22958;51.232;6.826;2022-07-25T01:55:56;21.10;99.90
37050;DHT22;22958;51.232;6.826;2022-07-25T01:58:21;21.10;99.90
37050;DHT22;22958;51.232;6.826;2022-07-25T02:00:47;21.10;99.90
37050;DHT22;22958;51.232;6.826;2022-07-25T02:03:12;21.10;99.90
37050;DHT22;22958;51.232;6.826;2022-07-25T02:06:05;21.10;99.90
37050;DHT22;22958;51.232;6.826;2022-07-25T02:08:32;21.00;99.90
37050;DHT22;22958;51.232;6.826;2022-07-25T02:10:58;20.90;99.90
37050;DHT22;22958;51.232;6.826;2022-07-25T02:13:24;20.90;99.90
37050;DHT22;22958;51.232;6.826;2022-07-25T02:15:49;20.90;99.90
37050;DHT22;22958;51.232;6.826;2022-07-25T02:18:15;20.80;99.90
37050;DHT22;22958;51.232;6.826;2022-07-25T02:20:40;20.90;99.90
37050;DHT22;22958;51.232;6.826;2022-07-25T02:23:06;21.00;99.90
37050;DHT22;22958;51.232;6.826;2022-07-25T02:25:31;21.00;99.90
37050;DHT22;22958;51.232;6.826;2022-07-25T02:27:57;20.90;99.90
37050;DHT22;22958;51.232;6.826;2022-07-25T02:30:22;20.90;99.90
37050;DHT22;22958;51.232;6.826;2022-07-25T02:32:48;21.00;99.90
37050;DHT22;22958;51.232;6.826;2022-07-25T02:35:13;21.00;99.90
37050;DHT22;22958;51.232;6.826;2022-07-25T02:37:39;21.00;99.90
37050;DHT22;22958;51.232;6.826;2022-07-25T02:40:05;21.00;99.90
37050;DHT22;22958;51.232;6.826;2022-07-25T02:42:30;20.90;99.90
37050;DHT22;22958;51.232;6.826;2022-07-25T02:44:56;20.80;99.90
37050;DHT22;22958;51.232;6.826;2022-07-25T02:47:21;20.90;99.90
37050;DHT22;22958;51.232;6.826;2022-07-25T02:49:47;20.90;99.90
37050;DHT22;22958;51.232;6.826;2022-07-25T02:52:12;20.80;99.90
37050;DHT22;22958;51.232;6.826;2022-07-25T02:54:38;20.70;99.90
37050;DHT22;22958;51.232;6.826;2022-07-25T02:57:03;20.70;99.90
37050;DHT22;22958;51.232;6.826;2022-07-25T02:59:29;20.60;99.90
37050;DHT22;22958;51.232;6.826;2022-07-25T03:01:54;20.70;99.90
37050;DHT22;22958;51.232;6.826;2022-07-25T03:04:19;20.60;99.90
37050;DHT22;22958;51.232;6.826;2022-07-25T03:06:45;20.60;99.90
37050;DHT22;22958;51.232;6.826;2022-07-25T03:09:10;20.60;99.90
37050;DHT22;22958;51.232;6.826;2022-07-25T03:11:36;20.60;99.90
37050;DHT22;22958;51.232;6.826;2022-07-25T03:14:01;20.60;99.90
37050;DHT22;22958;51.232;6.826;2022-07-25T03:16:27;20.60;99.90
37050;DHT22;22958;51.232;6.826;2022-07-25T03:18:53;20.60;99.90
37050;DHT22;22958;51.232;6.826;2022-07-25T03:21:18;20.60;99.90
37050;DHT22;22958;51.232;6.826;2022-07-25T03:23:44;20.60;99.90
37050;DHT22;22958;51.232;6.826;2022-07-25T03:26:09;20.50;99.90
37050;DHT22;22958;51.232;6.826;2022-07-25T03:28:35;20.40;99.90
37050;DHT22;22958;51.232;6.826;2022-07-25T03:31:00;20.30;99.90
37050;DHT22;22958;51.232;6.826;2022-07-25T03:33:26;20.30;99.90
37050;DHT22;22958;51.232;6.826;2022-07-25T03:35:51;20.30;99.90
37050;DHT22;22958;51.232;6.826;2022-07-25T03:38:16;20.30;99.90
37050;DHT22;22958;51.232;6.826;2022-07-25T03:40:42;20.20;99.90
37050;DHT22;22958;51.232;6.826;2022-07-25T03:43:07;20.30;99.90
37050;DHT22;22958;51.232;6.826;2022-07-25T03:45:33;20.30;99.90
37050;DHT22;22958;51.232;6.826;2022-07-25T03:47:58;20.20;99.90
37050;DHT22;22958;51.232;6.826;2022-07-25T03:50:24;20.10;99.90
37050;DHT22;22958;51.232;6.826;2022-07-25T03:52:49;20.10;99.90
37050;DHT22;22958;51.232;6.826;2022-07-25T03:55:15;20.10;99.90
37050;DHT22;22958;51.232;6.826;2022-07-25T03:57:40;20.10;99.90
37050;DHT22;22958;51.232;6.826;2022-07-25T04:00:06;20.10;99.90
37050;DHT22;22958;51.232;6.826;2022-07-25T04:02:32;20.20;99.90
37050;DHT22;22958;51.232;6.826;2022-07-25T04:04:58;20.30;99.90
37050;DHT22;22958;51.232;6.826;2022-07-25T04:07:23;20.30;99.90
37050;DHT22;22958;51.232;6.826;2022-07-25T04:09:48;20.30;99.90
37050;DHT22;22958;51.232;6.826;2022-07-25T04:12:14;20.30;99.90
37050;DHT22;22958;51.232;6.826;2022-07-25T04:14:39;20.50;99.90
37050;DHT22;22958;51.232;6.826;2022-07-25T04:17:05;20.60;99.90
37050;DHT22;22958;51.232;6.826;2022-07-25T04:19:30;20.60;99.90
37050;DHT22;22958;51.232;6.826;2022-07-25T04:21:56;20.70;99.90
37050;DHT22;22958;51.232;6.826;2022-07-25T04:24:21;20.70;99.90
37050;DHT22;22958;51.232;6.826;2022-07-25T04:26:46;20.70;99.90
37050;DHT22;22958;51.232;6.826;2022-07-25T04:29:12;20.80;99.90
37050;DHT22;22958;51.232;6.826;2022-07-25T04:31:37;20.90;99.90
37050;DHT22;22958;51.232;6.826;2022-07-25T04:34:03;20.90;99.90
37050;DHT22;22958;51.232;6.826;2022-07-25T04:36:28;21.00;99.90
37050;DHT22;22958;51.232;6.826;2022-07-25T04:38:54;21.10;99.90
37050;DHT22;22958;51.232;6.826;2022-07-25T04:41:19;21.10;99.90
37050;DHT22;22958;51.232;6.826;2022-07-25T04:43:45;21.20;99.90
37050;DHT22;22958;51.232;6.826;2022-07-25T04:46:10;21.30;99.90
37050;DHT22;22958;51.232;6.826;2022-07-25T04:48:36;21.30;99.90
37050;DHT22;22958;51.232;6.826;2022-07-25T04:51:01;21.30;99.90
37050;DHT22;22958;51.232;6.826;2022-07-25T04:53:27;21.30;99.90
37050;DHT22;22958;51.232;6.826;2022-07-25T04:55:52;21.40;99.90
37050;DHT22;22958;51.232;6.826;2022-07-25T04:58:18;21.40;99.90
37050;DHT22;22958;51.232;6.826;2022-07-25T05:00:43;21.50;99.90
37050;DHT22;22958;51.232;6.826;2022-07-25T05:03:09;21.50;99.90
37050;DHT22;22958;51.232;6.826;2022-07-25T05:05:34;21.50;99.90
37050;DHT22;22958;51.232;6.826;2022-07-25T05:08:00;21.50;99.90
37050;DHT22;22958;51.232;6.826;2022-07-25T05:10:26;21.50;99.90
37050;DHT22;22958;51.232;6.826;2022-07-25T05:12:52;21.50;99.90
37050;DHT22;22958;51.232;6.826;2022-07-25T05:15:17;21.50;99.90
37050;DHT22;22958;51.232;6.826;2022-07-25T05:17:43;21.60;99.90
37050;DHT22;22958;51.232;6.826;2022-07-25T05:20:09;21.70;99.90
37050;DHT22;22958;51.232;6.826;2022-07-25T05:22:34;21.80;99.90
37050;DHT22;22958;51.232;6.826;2022-07-25T05:25:00;21.80;99.90
37050;DHT22;22958;51.232;6.826;2022-07-25T05:27:27;21.90;99.90
37050;DHT22;22958;51.232;6.826;2022-07-25T05:29:52;21.80;99.90
37050;DHT22;22958;51.232;6.826;2022-07-25T05:32:18;21.90;99.90
37050;DHT22;22958;51.232;6.826;2022-07-25T05:34:43;21.90;99.90
37050;DHT22;22958;51.232;6.826;2022-07-25T05:37:09;22.00;99.90
37050;DHT22;22958;51.232;6.826;2022-07-25T05:39:35;22.00;99.90
37050;DHT22;22958;51.232;6.826;2022-07-25T05:42:04;22.10;99.90
37050;DHT22;22958;51.232;6.826;2022-07-25T05:44:29;22.10;99.90
37050;DHT22;22958;51.232;6.826;2022-07-25T05:46:55;22.20;99.90
37050;DHT22;22958;51.232;6.826;2022-07-25T05:49:20;22.20;99.90
37050;DHT22;22958;51.232;6.826;2022-07-25T05:51:46;22.30;99.90
37050;DHT22;22958;51.232;6.826;2022-07-25T05:54:11;22.30;99.90
37050;DHT22;22958;51.232;6.826;2022-07-25T05:56:36;22.40;99.90
37050;DHT22;22958;51.232;6.826;2022-07-25T05:59:02;22.50;99.90
37050;DHT22;22958;51.232;6.826;2022-07-25T06:01:28;22.60;99.90
37050;DHT22;22958;51.232;6.826;2022-07-25T06:03:53;22.80;99.90
37050;DHT22;22958;51.232;6.826;2022-07-25T06:06:18;22.90;99.90
37050;DHT22;22958;51.232;6.826;2022-07-25T06:08:44;23.00;99.90
37050;DHT22;22958;51.232;6.826;2022-07-25T06:11:09;23.00;99.90
37050;DHT22;22958;51.232;6.826;2022-07-25T06:13:35;23.00;99.90
37050;DHT22;22958;51.232;6.826;2022-07-25T06:16:00;23.10;99.90
37050;DHT22;22958;51.232;6.826;2022-07-25T06:18:26;23.10;99.90
37050;DHT22;22958;51.232;6.826;2022-07-25T06:20:52;23.10;99.90
37050;DHT22;22958;51.232;6.826;2022-07-25T06:23:17;23.10;99.90
37050;DHT22;22958;51.232;6.826;2022-07-25T06:25:43;23.20;99.90
37050;DHT22;22958;51.232;6.826;2022-07-25T06:28:09;23.30;99.90
37050;DHT22;22958;51.232;6.826;2022-07-25T06:30:34;23.30;99.90
37050;DHT22;22958;51.232;6.826;2022-07-25T06:33:00;23.60;99.90
37050;DHT22;22958;51.232;6.826;2022-07-25T06:35:25;23.80;99.90
37050;DHT22;22958;51.232;6.826;2022-07-25T06:37:51;24.10;99.90
37050;DHT22;22958;51.232;6.826;2022-07-25T06:40:16;24.30;99.90
37050;DHT22;22958;51.232;6.826;2022-07-25T06:42:42;24.60;99.90
37050;DHT22;22958;51.232;6.826;2022-07-25T06:45:08;24.60;99.90
37050;DHT22;22958;51.232;6.826;2022-07-25T06:47:35;24.60;99.90
37050;DHT22;22958;51.232;6.826;2022-07-25T06:50:00;24.70;99.90
37050;DHT22;22958;51.232;6.826;2022-07-25T06:52:26;24.70;99.90
37050;DHT22;22958;51.232;6.826;2022-07-25T06:54:51;24.80;99.90
37050;DHT22;22958;51.232;6.826;2022-07-25T06:57:17;24.90;99.90
37050;DHT22;22958;51.232;6.826;2022-07-25T06:59:42;25.00;99.90
37050;DHT22;22958;51.232;6.826;2022-07-25T07:02:09;25.10;99.90
37050;DHT22;22958;51.232;6.826;2022-07-25T07:04:34;25.40;99.90
37050;DHT22;22958;51.232;6.826;2022-07-25T07:07:00;25.40;99.90
37050;DHT22;22958;51.232;6.826;2022-07-25T07:09:25;25.60;99.90
37050;DHT22;22958;51.232;6.826;2022-07-25T07:11:50;25.80;99.90
37050;DHT22;22958;51.232;6.826;2022-07-25T07:14:16;25.70;99.90
37050;DHT22;22958;51.232;6.826;2022-07-25T07:16:41;25.80;99.90
37050;DHT22;22958;51.232;6.826;2022-07-25T07:19:07;25.80;99.90
37050;DHT22;22958;51.232;6.826;2022-07-25T07:21:35;26.00;99.90
37050;DHT22;22958;51.232;6.826;2022-07-25T07:24:00;26.20;99.90
37050;DHT22;22958;51.232;6.826;2022-07-25T07:26:26;26.30;99.90
37050;DHT22;22958;51.232;6.826;2022-07-25T07:28:51;26.40;99.90
37050;DHT22;22958;51.232;6.826;2022-07-25T07:31:18;26.60;99.90
37050;DHT22;22958;51.232;6.826;2022-07-25T07:33:44;26.70;99.90
37050;DHT22;22958;51.232;6.826;2022-07-25T07:36:09;26.90;99.90
37050;DHT22;22958;51.232;6.826;2022-07-25T07:38:35;26.90;99.90
37050;DHT22;22958;51.232;6.826;2022-07-25T07:41:00;27.00;99.90
37050;DHT22;22958;51.232;6.826;2022-07-25T07:43:26;27.30;99.90
37050;DHT22;22958;51.232;6.826;2022-07-25T07:45:51;27.30;99.90
37050;DHT22;22958;51.232;6.826;2022-07-25T07:48:17;27.60;99.90
37050;DHT22;22958;51.232;6.826;2022-07-25T07:50:42;27.70;99.90
37050;DHT22;22958;51.232;6.826;2022-07-25T07:53:07;27.70;99.90
37050;DHT22;22958;51.232;6.826;2022-07-25T07:55:33;27.70;99.90
37050;DHT22;22958;51.232;6.826;2022-07-25T07:58:19;27.70;99.70
37050;DHT22;22958;51.232;6.826;2022-07-25T08:00:46;27.70;99.90
37050;DHT22;22958;51.232;6.826;2022-07-25T08:03:12;27.70;98.70
37050;DHT22;22958;51.232;6.826;2022-07-25T08:05:38;27.60;99.20
37050;DHT22;22958;51.232;6.826;2022-07-25T08:08:05;27.50;99.60
37050;DHT22;22958;51.232;6.826;2022-07-25T08:10:31;27.60;99.50
37050;DHT22;22958;51.232;6.826;2022-07-25T08:12:57;27.70;99.50
37050;DHT22;22958;51.232;6.826;2022-07-25T08:15:24;27.60;98.80
37050;DHT22;22958;51.232;6.826;2022-07-25T08:17:50;27.50;98.40
37050;DHT22;22958;51.232;6.826;2022-07-25T08:20:16;27.60;97.90
37050;DHT22;22958;51.232;6.826;2022-07-25T08:22:43;27.70;98.20
37050;DHT22;22958;51.232;6.826;2022-07-25T08:25:09;27.60;98.60
37050;DHT22;22958;51.232;6.826;2022-07-25T08:27:35;27.60;98.30
37050;DHT22;22958;51.232;6.826;2022-07-25T08:30:04;27.60;98.90
37050;DHT22;22958;51.232;6.826;2022-07-25T08:32:30;27.60;99.10
37050;DHT22;22958;51.232;6.826;2022-07-25T08:34:55;27.50;98.10
37050;DHT22;22958;51.232;6.826;2022-07-25T08:37:21;27.20;97.90
37050;DHT22;22958;51.232;6.826;2022-07-25T08:39:46;27.20;96.70
37050;DHT22;22958;51.232;6.826;2022-07-25T08:42:12;27.20;96.40
37050;DHT22;22958;51.232;6.826;2022-07-25T08:44:40;27.10;96.30
37050;DHT22;22958;51.232;6.826;2022-07-25T08:47:07;27.00;97.00
37050;DHT22;22958;51.232;6.826;2022-07-25T08:49:33;27.20;96.20
37050;DHT22;22958;51.232;6.826;2022-07-25T08:51:59;27.30;95.70
37050;DHT22;22958;51.232;6.826;2022-07-25T08:54:25;27.10;96.00
37050;DHT22;22958;51.232;6.826;2022-07-25T08:56:50;27.30;96.00
37050;DHT22;22958;51.232;6.826;2022-07-25T08:59:16;27.30;95.60
37050;DHT22;22958;51.232;6.826;2022-07-25T09:01:41;26.90;96.20
37050;DHT22;22958;51.232;6.826;2022-07-25T09:04:07;26.80;96.50
37050;DHT22;22958;51.232;6.826;2022-07-25T09:06:33;26.60;97.50
37050;DHT22;22958;51.232;6.826;2022-07-25T09:08:59;26.90;96.90
37050;DHT22;22958;51.232;6.826;2022-07-25T09:11:25;27.00;96.40
37050;DHT22;22958;51.232;6.826;2022-07-25T09:14:00;27.20;96.00
37050;DHT22;22958;51.232;6.826;2022-07-25T09:16:30;27.30;96.50
37050;DHT22;22958;51.232;6.826;2022-07-25T09:22:00;27.90;95.10
37050;DHT22;22958;51.232;6.826;2022-07-25T09:24:26;27.70;94.90
37050;DHT22;22958;51.232;6.826;2022-07-25T09:26:53;27.80;94.70
37050;DHT22;22958;51.232;6.826;2022-07-25T09:29:20;27.70;94.30
37050;DHT22;22958;51.232;6.826;2022-07-25T09:31:46;27.50;95.10
37050;DHT22;22958;51.232;6.826;2022-07-25T09:34:11;27.70;95.80
37050;DHT22;22958;51.232;6.826;2022-07-25T09:36:53;28.10;94.60
37050;DHT22;22958;51.232;6.826;2022-07-25T09:39:18;28.20;94.10
37050;DHT22;22958;51.232;6.826;2022-07-25T09:41:44;28.30;93.90
37050;DHT22;22958;51.232;6.826;2022-07-25T09:44:19;28.00;94.00
37050;DHT22;22958;51.232;6.826;2022-07-25T09:46:47;27.80;94.40
37050;DHT22;22958;51.232;6.826;2022-07-25T09:49:12;27.70;94.60
37050;DHT22;22958;51.232;6.826;2022-07-25T09:51:39;27.80;94.70
37050;DHT22;22958;51.232;6.826;2022-07-25T09:54:04;27.70;95.40
37050;DHT22;22958;51.232;6.826;2022-07-25T09:56:30;27.60;95.40
37050;DHT22;22958;51.232;6.826;2022-07-25T09:58:56;27.20;96.70
37050;DHT22;22958;51.232;6.826;2022-07-25T10:01:24;26.90;97.40
37050;DHT22;22958;51.232;6.826;2022-07-25T10:09:16;26.00;99.90
37050;DHT22;22958;51.232;6.826;2022-07-25T10:12:01;26.10;99.90
37050;DHT22;22958;51.232;6.826;2022-07-25T10:14:27;26.20;99.90
37050;DHT22;22958;51.232;6.826;2022-07-25T10:16:52;26.40;99.90
37050;DHT22;22958;51.232;6.826;2022-07-25T10:19:38;26.40;99.90
37050;DHT22;22958;51.232;6.826;2022-07-25T10:22:03;26.30;99.90
37050;DHT22;22958;51.232;6.826;2022-07-25T10:24:32;26.10;99.90
37050;DHT22;22958;51.232;6.826;2022-07-25T10:27:04;26.30;99.90
37050;DHT22;22958;51.232;6.826;2022-07-25T10:29:34;26.20;99.90
37050;DHT22;22958;51.232;6.826;2022-07-25T10:32:06;26.30;99.90
37050;DHT22;22958;51.232;6.826;2022-07-25T10:34:32;26.20;99.90
37050;DHT22;22958;51.232;6.826;2022-07-25T10:37:07;26.30;99.90
37050;DHT22;22958;51.232;6.826;2022-07-25T10:39:40;26.60;99.90
37050;DHT22;22958;51.232;6.826;2022-07-25T10:42:06;27.10;98.40
37050;DHT22;22958;51.232;6.826;2022-07-25T10:44:44;27.70;97.30
37050;DHT22;22958;51.232;6.826;2022-07-25T10:47:12;27.60;94.40
37050;DHT22;22958;51.232;6.826;2022-07-25T10:49:39;27.40;93.30
37050;DHT22;22958;51.232;6.826;2022-07-25T10:52:05;27.70;92.70
37050;DHT22;22958;51.232;6.826;2022-07-25T10:54:32;27.30;92.80
37050;DHT22;22958;51.232;6.826;2022-07-25T10:56:58;27.40;92.40
37050;DHT22;22958;51.232;6.826;2022-07-25T10:59:24;27.80;91.10
37050;DHT22;22958;51.232;6.826;2022-07-25T11:01:50;27.60;91.10
37050;DHT22;22958;51.232;6.826;2022-07-25T11:04:16;27.90;88.60
37050;DHT22;22958;51.232;6.826;2022-07-25T11:06:41;27.80;88.10
37050;DHT22;22958;51.232;6.826;2022-07-25T11:09:21;28.00;87.20
37050;DHT22;22958;51.232;6.826;2022-07-25T11:11:48;28.10;87.00
37050;DHT22;22958;51.232;6.826;2022-07-25T11:14:14;28.10;85.70
37050;DHT22;22958;51.232;6.826;2022-07-25T11:16:41;27.90;86.00
37050;DHT22;22958;51.232;6.826;2022-07-25T11:19:16;28.90;83.30
37050;DHT22;22958;51.232;6.826;2022-07-25T11:21:43;29.70;79.70
37050;DHT22;22958;51.232;6.826;2022-07-25T11:24:08;30.20;78.40
37050;DHT22;22958;51.232;6.826;2022-07-25T11:26:43;29.80;78.10
37050;DHT22;22958;51.232;6.826;2022-07-25T11:29:16;29.10;75.90
37050;DHT22;22958;51.232;6.826;2022-07-25T11:31:41;28.90;76.80
37050;DHT22;22958;51.232;6.826;2022-07-25T11:34:07;29.00;76.20
37050;DHT22;22958;51.232;6.826;2022-07-25T11:36:32;29.90;71.90
37050;DHT22;22958;51.232;6.826;2022-07-25T11:38:58;29.10;72.70
37050;DHT22;22958;51.232;6.826;2022-07-25T11:41:27;28.70;72.80
37050;DHT22;22958;51.232;6.826;2022-07-25T11:43:52;28.50;73.80
37050;DHT22;22958;51.232;6.826;2022-07-25T11:46:18;28.90;73.40
37050;DHT22;22958;51.232;6.826;2022-07-25T11:48:43;28.70;72.90
37050;DHT22;22958;51.232;6.826;2022-07-25T11:53:43;29.60;71.50
37050;DHT22;22958;51.232;6.826;2022-07-25T11:58:37;29.90;70.00
37050;DHT22;22958;51.232;6.826;2022-07-25T12:01:09;29.90;68.90
37050;DHT22;22958;51.232;6.826;2022-07-25T12:03:36;30.10;69.60
37050;DHT22;22958;51.232;6.826;2022-07-25T12:06:08;30.00;68.60
37050;DHT22;22958;51.232;6.826;2022-07-25T12:08:36;29.40;70.30
37050;DHT22;22958;51.232;6.826;2022-07-25T12:11:01;29.10;71.00
37050;DHT22;22958;51.232;6.826;2022-07-25T12:13:27;29.40;71.90
37050;DHT22;22958;51.232;6.826;2022-07-25T12:15:54;29.40;71.40
37050;DHT22;22958;51.232;6.826;2022-07-25T12:18:20;29.40;72.30
37050;DHT22;22958;51.232;6.826;2022-07-25T12:20:45;28.90;73.30
37050;DHT22;22958;51.232;6.826;2022-07-25T12:23:11;28.90;73.80
37050;DHT22;22958;51.232;6.826;2022-07-25T12:25:38;29.10;74.00
37050;DHT22;22958;51.232;6.826;2022-07-25T12:28:04;28.80;75.10
37050;DHT22;22958;51.232;6.826;2022-07-25T12:30:30;28.60;75.50
37050;DHT22;22958;51.232;6.826;2022-07-25T12:32:56;28.50;76.70
37050;DHT22;22958;51.232;6.826;2022-07-25T12:35:21;28.50;76.70
37050;DHT22;22958;51.232;6.826;2022-07-25T12:37:47;28.50;77.60
37050;DHT22;22958;51.232;6.826;2022-07-25T12:40:13;28.30;79.20
37050;DHT22;22958;51.232;6.826;2022-07-25T12:42:39;28.30;79.40
37050;DHT22;22958;51.232;6.826;2022-07-25T12:45:04;28.30;80.10
37050;DHT22;22958;51.232;6.826;2022-07-25T12:47:31;28.70;80.90
37050;DHT22;22958;51.232;6.826;2022-07-25T12:49:57;28.10;83.20
37050;DHT22;22958;51.232;6.826;2022-07-25T12:52:22;27.90;84.60
37050;DHT22;22958;51.232;6.826;2022-07-25T12:54:48;28.30;84.20
37050;DHT22;22958;51.232;6.826;2022-07-25T12:57:13;28.90;83.30
37050;DHT22;22958;51.232;6.826;2022-07-25T12:59:39;28.90;82.90
37050;DHT22;22958;51.232;6.826;2022-07-25T13:02:05;28.60;83.20
37050;DHT22;22958;51.232;6.826;2022-07-25T13:04:30;28.50;83.60
37050;DHT22;22958;51.232;6.826;2022-07-25T13:06:56;28.40;83.90
37050;DHT22;22958;51.232;6.826;2022-07-25T13:09:22;28.00;85.00
37050;DHT22;22958;51.232;6.826;2022-07-25T13:11:47;27.90;86.40
37050;DHT22;22958;51.232;6.826;2022-07-25T13:14:13;28.20;87.20
37050;DHT22;22958;51.232;6.826;2022-07-25T13:16:43;27.90;88.90
37050;DHT22;22958;51.232;6.826;2022-07-25T13:19:09;27.40;90.40
37050;DHT22;22958;51.232;6.826;2022-07-25T13:21:35;27.10;91.60
37050;DHT22;22958;51.232;6.826;2022-07-25T13:24:00;27.00;92.70
37050;DHT22;22958;51.232;6.826;2022-07-25T13:26:26;28.00;93.20
37050;DHT22;22958;51.232;6.826;2022-07-25T13:28:51;28.70;90.50
37050;DHT22;22958;51.232;6.826;2022-07-25T13:31:17;28.40;90.50
37050;DHT22;22958;51.232;6.826;2022-07-25T13:33:44;28.90;89.80
37050;DHT22;22958;51.232;6.826;2022-07-25T13:36:10;29.20;86.10
37050;DHT22;22958;51.232;6.826;2022-07-25T13:38:35;28.50;85.80
37050;DHT22;22958;51.232;6.826;2022-07-25T13:41:03;28.80;85.00
37050;DHT22;22958;51.232;6.826;2022-07-25T13:43:28;28.60;86.10
37050;DHT22;22958;51.232;6.826;2022-07-25T13:45:54;28.60;85.30
37050;DHT22;22958;51.232;6.826;2022-07-25T13:48:19;28.20;85.80
37050;DHT22;22958;51.232;6.826;2022-07-25T13:50:44;28.20;85.90
37050;DHT22;22958;51.232;6.826;2022-07-25T13:53:10;28.30;85.80
37050;DHT22;22958;51.232;6.826;2022-07-25T13:55:35;28.10;86.70
37050;DHT22;22958;51.232;6.826;2022-07-25T13:58:02;28.00;85.50
37050;DHT22;22958;51.232;6.826;2022-07-25T14:00:27;27.70;86.80
37050;DHT22;22958;51.232;6.826;2022-07-25T14:02:53;27.80;83.80
37050;DHT22;22958;51.232;6.826;2022-07-25T14:05:19;27.50;83.20
37050;DHT22;22958;51.232;6.826;2022-07-25T14:07:44;27.40;84.20
37050;DHT22;22958;51.232;6.826;2022-07-25T14:10:09;27.30;85.00
37050;DHT22;22958;51.232;6.826;2022-07-25T14:12:35;27.40;85.80
37050;DHT22;22958;51.232;6.826;2022-07-25T14:15:01;27.30;87.00
37050;DHT22;22958;51.232;6.826;2022-07-25T14:17:26;27.50;88.00
37050;DHT22;22958;51.232;6.826;2022-07-25T14:19:52;27.30;90.00
37050;DHT22;22958;51.232;6.826;2022-07-25T14:22:17;27.30;90.10
37050;DHT22;22958;51.232;6.826;2022-07-25T14:24:43;27.50;89.90
37050;DHT22;22958;51.232;6.826;2022-07-25T14:27:08;27.60;86.60
37050;DHT22;22958;51.232;6.826;2022-07-25T14:29:34;27.50;86.70
37050;DHT22;22958;51.232;6.826;2022-07-25T14:32:04;27.50;85.70
37050;DHT22;22958;51.232;6.826;2022-07-25T14:34:31;27.70;85.70
37050;DHT22;22958;51.232;6.826;2022-07-25T14:36:56;27.70;85.80
37050;DHT22;22958;51.232;6.826;2022-07-25T14:39:22;27.40;87.60
37050;DHT22;22958;51.232;6.826;2022-07-25T14:41:47;27.00;90.30
37050;DHT22;22958;51.232;6.826;2022-07-25T14:44:13;26.60;92.20
37050;DHT22;22958;51.232;6.826;2022-07-25T14:46:39;26.40;94.60
37050;DHT22;22958;51.232;6.826;2022-07-25T14:49:05;26.50;96.40
37050;DHT22;22958;51.232;6.826;2022-07-25T14:51:31;26.50;97.20
37050;DHT22;22958;51.232;6.826;2022-07-25T14:53:57;26.40;98.20
37050;DHT22;22958;51.232;6.826;2022-07-25T14:56:22;26.10;99.90
37050;DHT22;22958;51.232;6.826;2022-07-25T14:58:48;26.20;99.90
37050;DHT22;22958;51.232;6.826;2022-07-25T15:01:14;26.30;99.90
37050;DHT22;22958;51.232;6.826;2022-07-25T15:03:42;25.80;99.90
37050;DHT22;22958;51.232;6.826;2022-07-25T15:06:08;25.50;99.90
37050;DHT22;22958;51.232;6.826;2022-07-25T15:08:37;25.30;99.90
37050;DHT22;22958;51.232;6.826;2022-07-25T15:11:04;25.40;99.90
37050;DHT22;22958;51.232;6.826;2022-07-25T15:13:29;25.60;99.90
37050;DHT22;22958;51.232;6.826;2022-07-25T15:15:55;25.50;99.90
37050;DHT22;22958;51.232;6.826;2022-07-25T15:18:21;25.50;99.90
37050;DHT22;22958;51.232;6.826;2022-07-25T15:20:46;25.10;99.90
37050;DHT22;22958;51.232;6.826;2022-07-25T15:23:13;25.00;99.90
37050;DHT22;22958;51.232;6.826;2022-07-25T15:25:38;25.00;99.90
37050;DHT22;22958;51.232;6.826;2022-07-25T15:28:04;24.90;99.90
37050;DHT22;22958;51.232;6.826;2022-07-25T15:30:29;24.70;99.90
37050;DHT22;22958;51.232;6.826;2022-07-25T15:32:55;24.60;99.90
37050;DHT22;22958;51.232;6.826;2022-07-25T15:35:20;24.50;99.90
37050;DHT22;22958;51.232;6.826;2022-07-25T15:37:46;24.50;99.90